CheckWX is a tool to help pilots better visualize weather data.  It is not intended as a substitute for an official pre-flight weather briefing.

05:20:55 UTC

KEZF METAR
Shannon Airport
Fredericksburg, Virginia, USA
Current

26 mins ago

KEZF 240455Z AUTO 01003KT 10SM OVC007 04/04 A3007 RMK AO2 T00350035
Observed
Feb-24 @ 04:55 UTC
Wind
  • 010° at 3 KTS
Visibility
10 SM
Flight Rules
IFR
Cloud Levels
  • Overcast at 700' AGL
Temperature
C / 39°F
Dewpoint
C / 39°F
Humidity
100%
Altimeter
30.07" Hg
Pressure
1018.32 hPa
Previous

46 mins ago

KEZF 240435Z AUTO 00000KT 10SM OVC005 04/04 A3009 RMK AO2 T00350035
Observed
Feb-24 @ 04:35 UTC
Visibility
10 SM
Flight Rules
IFR
Cloud Levels
  • Overcast at 500' AGL
Temperature
C / 39°F
Dewpoint
C / 39°F
Humidity
100%
Altimeter
30.09" Hg
Pressure
1018.92 hPa
Previous

1 hour ago

KEZF 240415Z AUTO 00000KT 10SM OVC005 04/04 A3011 RMK AO2 T00350035
Observed
Feb-24 @ 04:15 UTC
Visibility
10 SM
Flight Rules
IFR
Cloud Levels
  • Overcast at 500' AGL
Temperature
C / 39°F
Dewpoint
C / 39°F
Humidity
100%
Altimeter
30.11" Hg
Pressure
1019.62 hPa